Norfolk Downs, Massachusetts
Current Conditions -  °F | °C
As of 7:08 PM on Monday 22 Dec 2014 (Local Time) from KBOS Reporting Station
Overcast Overcast  
Wind Chill:   Ceiling: 2700
Heat Index:   Visibility: 10mi
Dew Point:   Wind: 0mph
Humidity: 87%   Direction: NA
Pressure: 30.33"   Gusts: NA
Location:  42.2866°N, 71.0248°W
Report Text: KBOS 230008Z 00000KT 10SM BKN027 OVC045 06/04 A3033 RMK AO2
Loading
Personal Weather Stations






























Interactive Weather Map New forecast layout! Learn more

10-Day Weather Forecast

Advertisements
Track Severe Weather on mobile